Cable, Illinois
Current Conditions -  °F | °C
As of 8:24 AM on Monday 26 Jan 2015 (Local Time) from KMLI Reporting Station
Light Snow Light Snow  
Wind Chill: 13°   Ceiling: 2900
Heat Index: 21°   Visibility: 1mi
Dew Point: 15°   Wind: 6mph
Humidity: 78%   Direction: 170°S
Pressure: 29.94"   Gusts: NA
Location:  41.2864°N, 90.4945°W
Report Text: KMLI 261424Z 17005KT 1SM R09/6000VP6000FT -SN OVC029 M06/M09 A2994 RMK AO2 SNB10 P0000 T10611094
Loading
Personal Weather Stations






























Interactive Weather Map New forecast layout! Learn more

10-Day Weather Forecast

Advertisements
Track Severe Weather on mobile